createdAt,value
2023-09-27T00:03:00.478Z,14.52
2023-09-27T00:13:03.843Z,14.08
2023-09-27T00:23:09.055Z,13.99
2023-09-27T00:33:11.690Z,13.75
2023-09-27T00:43:31.195Z,13.93
2023-09-27T00:53:35.098Z,13.99
2023-09-27T01:03:37.786Z,13.96
2023-09-27T01:13:40.252Z,14.03
2023-09-27T01:23:43.797Z,13.80
2023-09-27T01:33:46.392Z,13.46
2023-09-27T01:43:48.895Z,13.08
2023-09-27T01:53:51.392Z,13.19
2023-09-27T02:03:53.954Z,13.22
2023-09-27T02:13:57.561Z,13.26
2023-09-27T02:24:00.157Z,13.35
2023-09-27T02:34:02.683Z,13.29
2023-09-27T02:44:05.400Z,13.22
2023-09-27T02:54:08.028Z,13.13
2023-09-27T03:04:12.417Z,13.28
2023-09-27T03:14:14.957Z,13.09
2023-09-27T03:24:17.476Z,12.99
2023-09-27T03:34:20.084Z,12.99
2023-09-27T03:44:22.703Z,12.77
2023-09-27T03:54:25.225Z,12.95
2023-09-27T04:04:27.846Z,13.15
2023-09-27T04:14:34.330Z,13.23
2023-09-27T04:24:37.837Z,13.19
2023-09-27T04:34:40.269Z,13.21
2023-09-27T04:44:44.266Z,13.09
2023-09-27T04:54:47.208Z,12.97
2023-09-27T05:04:49.941Z,13.20
2023-09-27T05:14:52.474Z,13.19
2023-09-27T05:24:55.095Z,13.37
2023-09-27T05:34:57.859Z,13.50
2023-09-27T05:45:01.252Z,13.66
2023-09-27T05:55:07.007Z,13.87
2023-09-27T06:05:10.069Z,13.85
2023-09-27T06:15:14.161Z,13.74
2023-09-27T06:25:19.183Z,13.92
2023-09-27T06:35:22.119Z,14.42
2023-09-27T06:45:24.930Z,14.70
2023-09-27T06:55:27.494Z,15.05
2023-09-27T07:05:30.057Z,15.17
2023-09-27T07:15:32.961Z,15.14
2023-09-27T07:25:39.028Z,15.52
2023-09-27T07:35:45.381Z,15.49
2023-09-27T07:45:48.986Z,16.12
2023-09-27T07:55:52.412Z,16.61
2023-09-27T08:05:55.344Z,17.03
2023-09-27T08:15:57.958Z,17.67
2023-09-27T08:26:00.583Z,18.40
2023-09-27T08:36:03.196Z,19.10
2023-09-27T08:46:06.093Z,19.66
2023-09-27T08:56:11.121Z,20.60
2023-09-27T09:06:17.135Z,21.41
2023-09-27T09:16:24.817Z,22.88
2023-09-27T09:26:29.838Z,23.27
2023-09-27T09:36:33.552Z,24.98
2023-09-27T09:46:36.140Z,25.00
2023-09-27T09:56:51.538Z,25.06
2023-09-27T10:07:13.583Z,26.19
2023-09-27T10:17:26.453Z,26.62
2023-09-27T10:28:18.781Z,26.95
2023-09-27T10:38:21.415Z,28.28
2023-09-27T10:48:26.000Z,28.27
2023-09-27T10:58:28.647Z,28.32
2023-09-27T11:08:33.028Z,26.65
2023-09-27T11:18:36.708Z,27.64
2023-09-27T11:28:39.389Z,27.86
2023-09-27T11:38:51.411Z,27.58
2023-09-27T11:49:08.789Z,27.55
2023-09-27T11:59:16.430Z,29.08
2023-09-27T12:09:21.002Z,27.62
2023-09-27T12:19:26.623Z,29.09
2023-09-27T12:29:29.246Z,27.50
2023-09-27T12:39:32.018Z,29.80
2023-09-27T12:49:36.973Z,29.86
2023-09-27T12:59:40.823Z,30.16
2023-09-27T13:09:47.046Z,30.81
2023-09-27T13:19:50.369Z,30.75
2023-09-27T13:29:53.943Z,30.72
2023-09-27T13:40:01.256Z,31.52
2023-09-27T13:50:06.519Z,30.42
2023-09-27T14:00:14.965Z,28.82
2023-09-27T14:10:20.735Z,28.80
2023-09-27T14:20:23.525Z,28.46
2023-09-27T14:30:26.914Z,27.27
2023-09-27T14:40:30.064Z,26.65
2023-09-27T14:50:33.945Z,25.90
2023-09-27T15:00:41.776Z,25.52
2023-09-27T15:10:50.736Z,25.04
2023-09-27T15:20:53.731Z,24.88
2023-09-27T15:31:01.414Z,24.48
2023-09-27T15:41:05.668Z,24.05
2023-09-27T15:51:09.906Z,23.52
2023-09-27T16:01:13.334Z,22.83
2023-09-27T16:11:15.841Z,22.34
2023-09-27T16:21:21.418Z,21.66
2023-09-27T16:31:26.905Z,21.13
2023-09-27T16:41:31.183Z,20.54
2023-09-27T16:51:33.668Z,20.06
2023-09-27T17:01:36.290Z,19.70
2023-09-27T17:11:41.138Z,19.42
2023-09-27T17:21:43.801Z,18.97
2023-09-27T17:31:48.014Z,18.33
2023-09-27T17:41:51.185Z,17.65
2023-09-27T17:51:57.139Z,17.43
2023-09-27T18:01:59.845Z,17.32
2023-09-27T18:12:03.331Z,17.32
2023-09-27T18:22:07.236Z,17.23
2023-09-27T18:32:10.590Z,17.14
2023-09-27T18:42:16.864Z,16.87
2023-09-27T18:52:19.883Z,16.87
2023-09-27T19:02:23.898Z,16.69
2023-09-27T19:12:26.720Z,16.59
2023-09-27T19:22:29.560Z,15.95
2023-09-27T19:32:32.169Z,15.75
2023-09-27T19:42:34.823Z,15.51
2023-09-27T19:52:38.947Z,15.56
2023-09-27T20:02:41.735Z,15.44
2023-09-27T20:12:44.636Z,15.45
2023-09-27T20:22:47.239Z,15.48
2023-09-27T20:32:49.798Z,15.10
2023-09-27T20:42:52.499Z,14.79
2023-09-27T20:52:55.031Z,14.71
2023-09-27T21:02:57.576Z,14.71
2023-09-27T21:13:00.126Z,14.63
2023-09-27T21:23:02.901Z,14.32
2023-09-27T21:33:06.319Z,14.44
2023-09-27T21:43:08.795Z,14.26
2023-09-27T21:53:11.935Z,14.01
2023-09-27T22:03:17.389Z,13.96
2023-09-27T22:13:24.099Z,13.89
2023-09-27T22:23:40.938Z,13.78
2023-09-27T22:33:44.676Z,13.87
2023-09-27T22:43:51.162Z,13.73
2023-09-27T22:53:53.895Z,13.59
2023-09-27T23:03:56.945Z,13.13
2023-09-27T23:14:06.215Z,12.77
2023-09-27T23:24:30.707Z,12.61
2023-09-27T23:34:35.171Z,13.08
2023-09-27T23:44:37.906Z,13.06
2023-09-27T23:54:42.479Z,13.43
